sensor_id;sensor_type;location;lat;lon;timestamp;P1;durP1;ratioP1;P2;durP2;ratioP2
37937;SDS011;23763;48.130;11.602;2024-03-08T00:00:34;15.43;;;12.90;;
37937;SDS011;23763;48.130;11.602;2024-03-08T00:03:01;14.30;;;12.37;;
37937;SDS011;23763;48.130;11.602;2024-03-08T00:05:27;14.53;;;11.77;;
37937;SDS011;23763;48.130;11.602;2024-03-08T00:07:53;14.00;;;11.93;;
37937;SDS011;23763;48.130;11.602;2024-03-08T00:10:19;16.47;;;12.63;;
37937;SDS011;23763;48.130;11.602;2024-03-08T00:12:46;14.03;;;12.27;;
37937;SDS011;23763;48.130;11.602;2024-03-08T00:15:12;17.63;;;12.50;;
37937;SDS011;23763;48.130;11.602;2024-03-08T00:17:39;15.13;;;13.03;;
37937;SDS011;23763;48.130;11.602;2024-03-08T00:20:05;16.50;;;13.63;;
37937;SDS011;23763;48.130;11.602;2024-03-08T00:22:34;14.40;;;12.17;;
37937;SDS011;23763;48.130;11.602;2024-03-08T00:25:01;15.47;;;12.53;;
37937;SDS011;23763;48.130;11.602;2024-03-08T00:27:27;17.23;;;12.53;;
37937;SDS011;23763;48.130;11.602;2024-03-08T00:29:55;15.73;;;13.00;;
37937;SDS011;23763;48.130;11.602;2024-03-08T00:32:21;14.50;;;12.63;;
37937;SDS011;23763;48.130;11.602;2024-03-08T00:34:50;15.33;;;13.33;;
37937;SDS011;23763;48.130;11.602;2024-03-08T00:37:22;15.20;;;12.20;;
37937;SDS011;23763;48.130;11.602;2024-03-08T00:39:51;15.60;;;13.43;;
37937;SDS011;23763;48.130;11.602;2024-03-08T00:42:18;17.90;;;14.03;;
37937;SDS011;23763;48.130;11.602;2024-03-08T00:44:44;18.60;;;12.77;;
37937;SDS011;23763;48.130;11.602;2024-03-08T00:47:10;15.83;;;12.67;;
37937;SDS011;23763;48.130;11.602;2024-03-08T00:49:36;14.73;;;12.93;;
37937;SDS011;23763;48.130;11.602;2024-03-08T00:52:03;14.97;;;12.70;;
37937;SDS011;23763;48.130;11.602;2024-03-08T00:54:33;14.80;;;12.80;;
37937;SDS011;23763;48.130;11.602;2024-03-08T00:56:59;17.23;;;14.13;;
37937;SDS011;23763;48.130;11.602;2024-03-08T00:59:28;16.33;;;13.33;;
37937;SDS011;23763;48.130;11.602;2024-03-08T01:01:57;13.57;;;11.93;;
37937;SDS011;23763;48.130;11.602;2024-03-08T01:04:24;17.97;;;13.30;;
37937;SDS011;23763;48.130;11.602;2024-03-08T01:06:53;17.10;;;14.27;;
37937;SDS011;23763;48.130;11.602;2024-03-08T01:09:21;16.97;;;13.37;;
37937;SDS011;23763;48.130;11.602;2024-03-08T01:11:47;17.97;;;13.83;;
37937;SDS011;23763;48.130;11.602;2024-03-08T01:14:13;17.27;;;14.07;;
37937;SDS011;23763;48.130;11.602;2024-03-08T01:16:39;27.73;;;18.23;;
37937;SDS011;23763;48.130;11.602;2024-03-08T01:19:06;17.10;;;13.67;;
37937;SDS011;23763;48.130;11.602;2024-03-08T01:21:32;16.33;;;13.57;;
37937;SDS011;23763;48.130;11.602;2024-03-08T01:23:58;16.47;;;13.40;;
37937;SDS011;23763;48.130;11.602;2024-03-08T01:26:24;17.93;;;14.73;;
37937;SDS011;23763;48.130;11.602;2024-03-08T01:28:50;17.87;;;14.70;;
37937;SDS011;23763;48.130;11.602;2024-03-08T01:31:16;14.33;;;12.27;;
37937;SDS011;23763;48.130;11.602;2024-03-08T01:33:42;20.00;;;15.67;;
37937;SDS011;23763;48.130;11.602;2024-03-08T01:36:08;17.77;;;14.30;;
37937;SDS011;23763;48.130;11.602;2024-03-08T01:38:34;18.97;;;14.57;;
37937;SDS011;23763;48.130;11.602;2024-03-08T01:41:01;16.67;;;13.13;;
37937;SDS011;23763;48.130;11.602;2024-03-08T01:43:29;20.40;;;13.77;;
37937;SDS011;23763;48.130;11.602;2024-03-08T01:45:56;16.33;;;13.20;;
37937;SDS011;23763;48.130;11.602;2024-03-08T01:48:27;17.47;;;13.90;;
37937;SDS011;23763;48.130;11.602;2024-03-08T01:50:53;16.27;;;13.40;;
37937;SDS011;23763;48.130;11.602;2024-03-08T01:53:19;17.60;;;13.23;;
37937;SDS011;23763;48.130;11.602;2024-03-08T01:55:49;16.13;;;12.80;;
37937;SDS011;23763;48.130;11.602;2024-03-08T01:58:15;19.37;;;13.63;;
37937;SDS011;23763;48.130;11.602;2024-03-08T02:00:43;17.50;;;13.97;;
37937;SDS011;23763;48.130;11.602;2024-03-08T02:03:10;19.63;;;14.27;;
37937;SDS011;23763;48.130;11.602;2024-03-08T02:05:36;18.07;;;14.20;;
37937;SDS011;23763;48.130;11.602;2024-03-08T02:08:03;19.47;;;15.83;;
37937;SDS011;23763;48.130;11.602;2024-03-08T02:10:32;19.27;;;14.27;;
37937;SDS011;23763;48.130;11.602;2024-03-08T02:12:58;18.90;;;13.77;;
37937;SDS011;23763;48.130;11.602;2024-03-08T02:15:24;21.60;;;14.63;;
37937;SDS011;23763;48.130;11.602;2024-03-08T02:17:51;18.40;;;14.47;;
37937;SDS011;23763;48.130;11.602;2024-03-08T02:20:18;18.80;;;14.00;;
37937;SDS011;23763;48.130;11.602;2024-03-08T02:22:45;20.23;;;14.80;;
37937;SDS011;23763;48.130;11.602;2024-03-08T02:25:11;19.67;;;14.07;;
37937;SDS011;23763;48.130;11.602;2024-03-08T02:27:37;21.73;;;15.37;;
37937;SDS011;23763;48.130;11.602;2024-03-08T02:30:03;18.07;;;15.00;;
37937;SDS011;23763;48.130;11.602;2024-03-08T02:32:30;17.63;;;13.87;;
37937;SDS011;23763;48.130;11.602;2024-03-08T02:34:57;19.10;;;14.80;;
37937;SDS011;23763;48.130;11.602;2024-03-08T02:37:25;18.67;;;14.20;;
37937;SDS011;23763;48.130;11.602;2024-03-08T02:39:51;17.87;;;14.73;;
37937;SDS011;23763;48.130;11.602;2024-03-08T02:42:17;18.00;;;14.23;;
37937;SDS011;23763;48.130;11.602;2024-03-08T02:44:43;17.10;;;13.77;;
37937;SDS011;23763;48.130;11.602;2024-03-08T02:47:09;18.87;;;13.80;;
37937;SDS011;23763;48.130;11.602;2024-03-08T02:49:36;17.77;;;14.10;;
37937;SDS011;23763;48.130;11.602;2024-03-08T02:52:03;17.83;;;14.20;;
37937;SDS011;23763;48.130;11.602;2024-03-08T02:54:30;19.07;;;14.90;;
37937;SDS011;23763;48.130;11.602;2024-03-08T02:56:56;17.80;;;14.30;;
37937;SDS011;23763;48.130;11.602;2024-03-08T02:59:22;19.17;;;14.40;;
37937;SDS011;23763;48.130;11.602;2024-03-08T03:01:48;17.93;;;14.00;;
37937;SDS011;23763;48.130;11.602;2024-03-08T03:04:15;19.33;;;14.73;;
37937;SDS011;23763;48.130;11.602;2024-03-08T03:06:41;17.40;;;14.17;;
37937;SDS011;23763;48.130;11.602;2024-03-08T03:09:07;18.40;;;14.23;;
37937;SDS011;23763;48.130;11.602;2024-03-08T03:11:35;22.07;;;15.10;;
37937;SDS011;23763;48.130;11.602;2024-03-08T03:14:02;18.33;;;14.90;;
37937;SDS011;23763;48.130;11.602;2024-03-08T03:16:29;19.37;;;14.90;;
37937;SDS011;23763;48.130;11.602;2024-03-08T03:18:55;20.33;;;15.00;;
37937;SDS011;23763;48.130;11.602;2024-03-08T03:21:22;19.77;;;14.47;;
37937;SDS011;23763;48.130;11.602;2024-03-08T03:23:48;24.17;;;15.47;;
37937;SDS011;23763;48.130;11.602;2024-03-08T03:26:14;19.03;;;14.43;;
37937;SDS011;23763;48.130;11.602;2024-03-08T03:28:42;18.97;;;15.07;;
37937;SDS011;23763;48.130;11.602;2024-03-08T03:31:08;18.07;;;14.87;;
37937;SDS011;23763;48.130;11.602;2024-03-08T03:33:39;22.47;;;15.57;;
37937;SDS011;23763;48.130;11.602;2024-03-08T03:36:05;19.13;;;14.23;;
37937;SDS011;23763;48.130;11.602;2024-03-08T03:38:33;17.97;;;14.47;;
37937;SDS011;23763;48.130;11.602;2024-03-08T03:40:59;18.07;;;14.47;;
37937;SDS011;23763;48.130;11.602;2024-03-08T03:43:34;19.17;;;14.90;;
37937;SDS011;23763;48.130;11.602;2024-03-08T03:46:05;18.20;;;14.70;;
37937;SDS011;23763;48.130;11.602;2024-03-08T03:48:31;19.47;;;15.17;;
37937;SDS011;23763;48.130;11.602;2024-03-08T03:50:57;20.30;;;15.40;;
37937;SDS011;23763;48.130;11.602;2024-03-08T03:53:23;20.23;;;15.03;;
37937;SDS011;23763;48.130;11.602;2024-03-08T03:55:50;17.80;;;14.63;;
37937;SDS011;23763;48.130;11.602;2024-03-08T03:58:17;21.17;;;15.17;;
37937;SDS011;23763;48.130;11.602;2024-03-08T04:00:47;22.30;;;15.33;;
37937;SDS011;23763;48.130;11.602;2024-03-08T04:03:14;20.10;;;15.50;;
37937;SDS011;23763;48.130;11.602;2024-03-08T04:05:42;20.57;;;14.90;;
37937;SDS011;23763;48.130;11.602;2024-03-08T04:08:08;19.50;;;15.23;;
37937;SDS011;23763;48.130;11.602;2024-03-08T04:10:34;20.87;;;14.83;;
37937;SDS011;23763;48.130;11.602;2024-03-08T04:13:00;18.80;;;15.20;;
37937;SDS011;23763;48.130;11.602;2024-03-08T04:15:26;22.83;;;15.30;;
37937;SDS011;23763;48.130;11.602;2024-03-08T04:17:52;20.50;;;15.27;;
37937;SDS011;23763;48.130;11.602;2024-03-08T04:20:18;19.10;;;15.10;;
37937;SDS011;23763;48.130;11.602;2024-03-08T04:22:44;20.23;;;14.17;;
37937;SDS011;23763;48.130;11.602;2024-03-08T04:25:14;20.73;;;14.63;;
37937;SDS011;23763;48.130;11.602;2024-03-08T04:27:40;22.73;;;15.77;;
37937;SDS011;23763;48.130;11.602;2024-03-08T04:30:06;18.63;;;15.00;;
37937;SDS011;23763;48.130;11.602;2024-03-08T04:32:32;21.97;;;16.00;;
37937;SDS011;23763;48.130;11.602;2024-03-08T04:34:58;21.97;;;16.00;;
37937;SDS011;23763;48.130;11.602;2024-03-08T04:37:26;21.43;;;16.20;;
37937;SDS011;23763;48.130;11.602;2024-03-08T04:39:54;23.17;;;16.10;;
37937;SDS011;23763;48.130;11.602;2024-03-08T04:42:20;23.10;;;15.97;;
37937;SDS011;23763;48.130;11.602;2024-03-08T04:44:47;21.33;;;15.87;;
37937;SDS011;23763;48.130;11.602;2024-03-08T04:47:13;21.73;;;16.53;;
37937;SDS011;23763;48.130;11.602;2024-03-08T04:49:39;19.67;;;16.90;;
37937;SDS011;23763;48.130;11.602;2024-03-08T04:52:05;27.87;;;17.67;;
37937;SDS011;23763;48.130;11.602;2024-03-08T04:54:31;21.37;;;16.33;;
37937;SDS011;23763;48.130;11.602;2024-03-08T04:56:58;25.70;;;17.00;;
37937;SDS011;23763;48.130;11.602;2024-03-08T04:59:27;20.50;;;16.70;;
37937;SDS011;23763;48.130;11.602;2024-03-08T05:01:53;24.23;;;17.70;;
37937;SDS011;23763;48.130;11.602;2024-03-08T05:04:19;22.00;;;16.73;;
37937;SDS011;23763;48.130;11.602;2024-03-08T05:06:45;27.00;;;19.03;;
37937;SDS011;23763;48.130;11.602;2024-03-08T05:09:11;25.10;;;17.87;;
37937;SDS011;23763;48.130;11.602;2024-03-08T05:11:44;22.63;;;17.57;;
37937;SDS011;23763;48.130;11.602;2024-03-08T05:14:11;24.77;;;17.53;;
37937;SDS011;23763;48.130;11.602;2024-03-08T05:16:48;23.30;;;17.77;;
37937;SDS011;23763;48.130;11.602;2024-03-08T05:19:20;21.83;;;17.83;;
37937;SDS011;23763;48.130;11.602;2024-03-08T05:21:46;24.30;;;18.53;;
37937;SDS011;23763;48.130;11.602;2024-03-08T05:24:13;26.37;;;17.77;;
37937;SDS011;23763;48.130;11.602;2024-03-08T05:26:42;25.77;;;18.73;;
37937;SDS011;23763;48.130;11.602;2024-03-08T05:29:08;23.97;;;16.97;;
37937;SDS011;23763;48.130;11.602;2024-03-08T05:31:55;22.77;;;17.27;;
37937;SDS011;23763;48.130;11.602;2024-03-08T05:34:21;23.47;;;17.53;;
37937;SDS011;23763;48.130;11.602;2024-03-08T05:36:48;23.57;;;17.33;;
37937;SDS011;23763;48.130;11.602;2024-03-08T05:39:16;30.00;;;21.47;;
37937;SDS011;23763;48.130;11.602;2024-03-08T05:41:42;23.73;;;18.63;;
37937;SDS011;23763;48.130;11.602;2024-03-08T05:44:08;22.27;;;17.53;;
37937;SDS011;23763;48.130;11.602;2024-03-08T05:46:35;25.30;;;17.60;;
37937;SDS011;23763;48.130;11.602;2024-03-08T05:49:04;24.17;;;18.37;;
37937;SDS011;23763;48.130;11.602;2024-03-08T05:51:31;25.50;;;19.07;;
37937;SDS011;23763;48.130;11.602;2024-03-08T05:53:59;23.17;;;17.97;;
37937;SDS011;23763;48.130;11.602;2024-03-08T05:56:26;24.37;;;17.73;;
37937;SDS011;23763;48.130;11.602;2024-03-08T05:58:54;24.03;;;18.00;;
37937;SDS011;23763;48.130;11.602;2024-03-08T06:01:20;24.63;;;18.10;;
37937;SDS011;23763;48.130;11.602;2024-03-08T06:03:46;30.13;;;18.83;;
37937;SDS011;23763;48.130;11.602;2024-03-08T06:06:14;23.80;;;18.97;;
37937;SDS011;23763;48.130;11.602;2024-03-08T06:08:40;27.43;;;20.07;;
37937;SDS011;23763;48.130;11.602;2024-03-08T06:11:08;25.40;;;19.13;;
37937;SDS011;23763;48.130;11.602;2024-03-08T06:13:34;24.60;;;17.27;;
37937;SDS011;23763;48.130;11.602;2024-03-08T06:16:01;21.20;;;16.90;;
37937;SDS011;23763;48.130;11.602;2024-03-08T06:18:33;24.37;;;19.00;;
37937;SDS011;23763;48.130;11.602;2024-03-08T06:21:01;23.27;;;17.10;;
37937;SDS011;23763;48.130;11.602;2024-03-08T06:23:27;24.13;;;17.13;;
37937;SDS011;23763;48.130;11.602;2024-03-08T06:25:53;22.87;;;18.37;;
37937;SDS011;23763;48.130;11.602;2024-03-08T06:28:19;22.67;;;17.13;;
37937;SDS011;23763;48.130;11.602;2024-03-08T06:30:46;23.13;;;17.73;;
37937;SDS011;23763;48.130;11.602;2024-03-08T06:33:12;23.33;;;17.40;;
37937;SDS011;23763;48.130;11.602;2024-03-08T06:35:38;24.77;;;16.70;;
37937;SDS011;23763;48.130;11.602;2024-03-08T06:38:04;22.03;;;17.00;;
37937;SDS011;23763;48.130;11.602;2024-03-08T06:40:30;24.23;;;16.93;;
37937;SDS011;23763;48.130;11.602;2024-03-08T06:42:56;25.73;;;19.17;;
37937;SDS011;23763;48.130;11.602;2024-03-08T06:45:22;25.93;;;19.50;;
37937;SDS011;23763;48.130;11.602;2024-03-08T06:47:49;28.73;;;20.30;;
37937;SDS011;23763;48.130;11.602;2024-03-08T06:50:15;27.67;;;19.10;;
37937;SDS011;23763;48.130;11.602;2024-03-08T06:52:41;23.77;;;17.10;;
37937;SDS011;23763;48.130;11.602;2024-03-08T06:55:08;25.57;;;16.87;;
37937;SDS011;23763;48.130;11.602;2024-03-08T06:57:40;24.70;;;17.37;;
37937;SDS011;23763;48.130;11.602;2024-03-08T07:00:07;21.93;;;16.30;;
37937;SDS011;23763;48.130;11.602;2024-03-08T07:02:40;23.90;;;17.20;;
37937;SDS011;23763;48.130;11.602;2024-03-08T07:05:07;25.37;;;18.43;;
37937;SDS011;23763;48.130;11.602;2024-03-08T07:07:35;20.00;;;16.80;;
37937;SDS011;23763;48.130;11.602;2024-03-08T07:10:02;24.37;;;16.67;;
37937;SDS011;23763;48.130;11.602;2024-03-08T07:12:28;22.50;;;15.50;;
37937;SDS011;23763;48.130;11.602;2024-03-08T07:14:54;25.47;;;17.67;;
37937;SDS011;23763;48.130;11.602;2024-03-08T07:17:20;20.43;;;15.67;;
37937;SDS011;23763;48.130;11.602;2024-03-08T07:19:47;23.00;;;16.57;;
37937;SDS011;23763;48.130;11.602;2024-03-08T07:22:14;23.70;;;16.43;;
37937;SDS011;23763;48.130;11.602;2024-03-08T07:24:40;24.83;;;17.47;;
37937;SDS011;23763;48.130;11.602;2024-03-08T07:27:06;24.50;;;17.13;;
37937;SDS011;23763;48.130;11.602;2024-03-08T07:29:32;25.40;;;16.60;;
37937;SDS011;23763;48.130;11.602;2024-03-08T07:32:01;22.93;;;16.70;;
37937;SDS011;23763;48.130;11.602;2024-03-08T07:34:44;24.77;;;16.67;;
37937;SDS011;23763;48.130;11.602;2024-03-08T07:37:10;24.90;;;17.30;;
37937;SDS011;23763;48.130;11.602;2024-03-08T07:39:36;22.93;;;17.23;;
37937;SDS011;23763;48.130;11.602;2024-03-08T07:42:04;23.20;;;16.93;;
37937;SDS011;23763;48.130;11.602;2024-03-08T07:44:30;26.07;;;18.83;;
37937;SDS011;23763;48.130;11.602;2024-03-08T07:46:57;25.50;;;19.47;;
37937;SDS011;23763;48.130;11.602;2024-03-08T07:49:23;26.07;;;17.87;;
37937;SDS011;23763;48.130;11.602;2024-03-08T07:51:49;26.77;;;17.97;;
37937;SDS011;23763;48.130;11.602;2024-03-08T07:54:16;23.90;;;17.47;;
37937;SDS011;23763;48.130;11.602;2024-03-08T07:56:43;25.23;;;17.90;;
37937;SDS011;23763;48.130;11.602;2024-03-08T07:59:09;23.70;;;17.17;;
37937;SDS011;23763;48.130;11.602;2024-03-08T08:01:37;23.63;;;17.60;;
37937;SDS011;23763;48.130;11.602;2024-03-08T08:04:05;23.80;;;17.10;;
37937;SDS011;23763;48.130;11.602;2024-03-08T08:06:33;20.50;;;16.10;;
37937;SDS011;23763;48.130;11.602;2024-03-08T08:09:00;25.47;;;17.30;;
37937;SDS011;23763;48.130;11.602;2024-03-08T08:11:26;23.07;;;16.33;;
37937;SDS011;23763;48.130;11.602;2024-03-08T08:13:55;24.37;;;16.90;;
37937;SDS011;23763;48.130;11.602;2024-03-08T08:16:24;25.03;;;17.07;;
37937;SDS011;23763;48.130;11.602;2024-03-08T08:18:51;25.37;;;17.93;;
37937;SDS011;23763;48.130;11.602;2024-03-08T08:21:18;22.73;;;17.70;;
37937;SDS011;23763;48.130;11.602;2024-03-08T08:23:44;24.83;;;17.83;;
37937;SDS011;23763;48.130;11.602;2024-03-08T08:26:11;25.03;;;16.87;;
37937;SDS011;23763;48.130;11.602;2024-03-08T08:28:37;25.47;;;17.57;;
37937;SDS011;23763;48.130;11.602;2024-03-08T08:31:03;26.23;;;18.30;;
37937;SDS011;23763;48.130;11.602;2024-03-08T08:33:29;24.10;;;18.10;;
37937;SDS011;23763;48.130;11.602;2024-03-08T08:35:56;24.10;;;17.07;;
37937;SDS011;23763;48.130;11.602;2024-03-08T08:38:23;25.57;;;17.13;;
37937;SDS011;23763;48.130;11.602;2024-03-08T08:40:49;24.70;;;17.33;;
37937;SDS011;23763;48.130;11.602;2024-03-08T08:43:15;23.70;;;17.80;;
37937;SDS011;23763;48.130;11.602;2024-03-08T08:45:42;23.83;;;17.97;;
37937;SDS011;23763;48.130;11.602;2024-03-08T08:48:09;24.50;;;17.27;;
37937;SDS011;23763;48.130;11.602;2024-03-08T08:50:35;28.70;;;17.47;;
37937;SDS011;23763;48.130;11.602;2024-03-08T08:53:01;23.23;;;17.03;;
37937;SDS011;23763;48.130;11.602;2024-03-08T08:55:28;23.13;;;16.73;;
37937;SDS011;23763;48.130;11.602;2024-03-08T08:57:56;23.33;;;16.00;;
37937;SDS011;23763;48.130;11.602;2024-03-08T09:00:22;24.03;;;16.47;;
37937;SDS011;23763;48.130;11.602;2024-03-08T09:02:52;21.63;;;16.47;;
37937;SDS011;23763;48.130;11.602;2024-03-08T09:05:20;20.77;;;16.80;;
37937;SDS011;23763;48.130;11.602;2024-03-08T09:07:52;25.43;;;18.50;;
37937;SDS011;23763;48.130;11.602;2024-03-08T09:10:18;22.37;;;15.87;;
37937;SDS011;23763;48.130;11.602;2024-03-08T09:12:44;24.73;;;17.27;;
37937;SDS011;23763;48.130;11.602;2024-03-08T09:15:11;23.80;;;16.43;;
37937;SDS011;23763;48.130;11.602;2024-03-08T09:17:37;26.00;;;17.80;;
37937;SDS011;23763;48.130;11.602;2024-03-08T09:20:06;23.47;;;17.23;;
37937;SDS011;23763;48.130;11.602;2024-03-08T09:22:46;28.70;;;18.03;;
37937;SDS011;23763;48.130;11.602;2024-03-08T09:25:12;25.43;;;17.77;;
37937;SDS011;23763;48.130;11.602;2024-03-08T09:27:38;22.67;;;16.10;;
37937;SDS011;23763;48.130;11.602;2024-03-08T09:30:10;23.80;;;18.20;;
37937;SDS011;23763;48.130;11.602;2024-03-08T09:32:42;26.80;;;17.80;;
37937;SDS011;23763;48.130;11.602;2024-03-08T09:35:12;21.80;;;16.87;;
37937;SDS011;23763;48.130;11.602;2024-03-08T09:37:38;23.63;;;16.03;;
37937;SDS011;23763;48.130;11.602;2024-03-08T09:40:09;27.20;;;18.03;;
37937;SDS011;23763;48.130;11.602;2024-03-08T09:42:43;24.17;;;17.53;;
37937;SDS011;23763;48.130;11.602;2024-03-08T09:45:10;25.37;;;17.00;;
37937;SDS011;23763;48.130;11.602;2024-03-08T09:47:37;24.10;;;17.00;;
37937;SDS011;23763;48.130;11.602;2024-03-08T09:50:06;24.87;;;17.20;;
37937;SDS011;23763;48.130;11.602;2024-03-08T09:52:34;25.27;;;16.67;;
37937;SDS011;23763;48.130;11.602;2024-03-08T09:55:00;25.43;;;17.30;;
37937;SDS011;23763;48.130;11.602;2024-03-08T09:57:36;27.43;;;17.63;;
37937;SDS011;23763;48.130;11.602;2024-03-08T10:00:03;24.53;;;17.30;;
37937;SDS011;23763;48.130;11.602;2024-03-08T10:02:44;25.57;;;18.53;;
37937;SDS011;23763;48.130;11.602;2024-03-08T10:05:12;26.47;;;17.77;;
37937;SDS011;23763;48.130;11.602;2024-03-08T10:07:39;23.87;;;17.60;;
37937;SDS011;23763;48.130;11.602;2024-03-08T10:10:05;23.87;;;17.50;;
37937;SDS011;23763;48.130;11.602;2024-03-08T10:12:33;24.60;;;16.57;;
37937;SDS011;23763;48.130;11.602;2024-03-08T10:15:00;22.43;;;15.67;;
37937;SDS011;23763;48.130;11.602;2024-03-08T10:17:26;25.47;;;16.90;;
37937;SDS011;23763;48.130;11.602;2024-03-08T10:19:57;22.03;;;15.80;;
37937;SDS011;23763;48.130;11.602;2024-03-08T10:22:24;22.40;;;14.50;;
37937;SDS011;23763;48.130;11.602;2024-03-08T10:24:54;20.13;;;15.07;;
37937;SDS011;23763;48.130;11.602;2024-03-08T10:27:21;18.75;;;14.00;;
37937;SDS011;23763;48.130;11.602;2024-03-08T10:29:47;18.83;;;14.87;;
37937;SDS011;23763;48.130;11.602;2024-03-08T10:32:15;20.17;;;14.52;;
37937;SDS011;23763;48.130;11.602;2024-03-08T10:34:41;20.50;;;15.03;;
37937;SDS011;23763;48.130;11.602;2024-03-08T10:37:14;17.92;;;13.65;;
37937;SDS011;23763;48.130;11.602;2024-03-08T10:40:01;18.90;;;14.23;;
37937;SDS011;23763;48.130;11.602;2024-03-08T10:42:35;18.98;;;14.98;;
37937;SDS011;23763;48.130;11.602;2024-03-08T10:45:06;20.08;;;14.70;;
37937;SDS011;23763;48.130;11.602;2024-03-08T10:47:39;20.83;;;14.68;;
37937;SDS011;23763;48.130;11.602;2024-03-08T10:50:10;17.50;;;13.48;;
37937;SDS011;23763;48.130;11.602;2024-03-08T10:52:38;19.02;;;14.18;;
37937;SDS011;23763;48.130;11.602;2024-03-08T10:55:05;19.45;;;14.45;;
37937;SDS011;23763;48.130;11.602;2024-03-08T10:57:37;16.60;;;13.38;;
37937;SDS011;23763;48.130;11.602;2024-03-08T11:00:05;14.88;;;13.25;;
37937;SDS011;23763;48.130;11.602;2024-03-08T11:02:35;17.27;;;13.63;;
37937;SDS011;23763;48.130;11.602;2024-03-08T11:05:02;16.58;;;13.20;;
37937;SDS011;23763;48.130;11.602;2024-03-08T11:07:33;16.10;;;12.98;;
37937;SDS011;23763;48.130;11.602;2024-03-08T11:10:02;18.98;;;13.57;;
37937;SDS011;23763;48.130;11.602;2024-03-08T11:12:36;19.05;;;13.35;;
37937;SDS011;23763;48.130;11.602;2024-03-08T11:15:09;16.02;;;13.10;;
37937;SDS011;23763;48.130;11.602;2024-03-08T11:20:09;18.42;;;14.40;;
37937;SDS011;23763;48.130;11.602;2024-03-08T11:22:41;16.38;;;13.10;;
37937;SDS011;23763;48.130;11.602;2024-03-08T11:25:15;19.40;;;13.70;;
37937;SDS011;23763;48.130;11.602;2024-03-08T11:28:12;19.95;;;14.35;;
37937;SDS011;23763;48.130;11.602;2024-03-08T11:30:41;18.35;;;14.63;;
37937;SDS011;23763;48.130;11.602;2024-03-08T11:33:11;20.17;;;14.80;;
37937;SDS011;23763;48.130;11.602;2024-03-08T11:35:37;17.40;;;14.20;;
37937;SDS011;23763;48.130;11.602;2024-03-08T11:38:05;17.90;;;14.80;;
37937;SDS011;23763;48.130;11.602;2024-03-08T11:40:31;19.13;;;14.27;;
37937;SDS011;23763;48.130;11.602;2024-03-08T11:42:58;18.83;;;14.88;;
37937;SDS011;23763;48.130;11.602;2024-03-08T11:45:24;18.42;;;14.45;;
37937;SDS011;23763;48.130;11.602;2024-03-08T11:47:50;20.05;;;15.27;;
37937;SDS011;23763;48.130;11.602;2024-03-08T11:50:17;19.73;;;14.95;;
37937;SDS011;23763;48.130;11.602;2024-03-08T11:52:46;22.30;;;15.50;;
37937;SDS011;23763;48.130;11.602;2024-03-08T11:55:12;17.25;;;14.27;;
37937;SDS011;23763;48.130;11.602;2024-03-08T11:57:38;18.77;;;14.68;;
37937;SDS011;23763;48.130;11.602;2024-03-08T12:00:04;19.15;;;14.70;;
37937;SDS011;23763;48.130;11.602;2024-03-08T12:02:34;17.48;;;13.95;;
37937;SDS011;23763;48.130;11.602;2024-03-08T12:05:03;18.15;;;14.07;;
37937;SDS011;23763;48.130;11.602;2024-03-08T12:07:31;17.67;;;13.90;;
37937;SDS011;23763;48.130;11.602;2024-03-08T12:10:30;16.70;;;13.55;;
37937;SDS011;23763;48.130;11.602;2024-03-08T12:12:53;22.35;;;13.93;;
37937;SDS011;23763;48.130;11.602;2024-03-08T12:15:20;18.45;;;13.20;;
37937;SDS011;23763;48.130;11.602;2024-03-08T12:17:48;17.17;;;13.20;;
37937;SDS011;23763;48.130;11.602;2024-03-08T12:22:42;16.42;;;13.25;;
37937;SDS011;23763;48.130;11.602;2024-03-08T12:25:09;17.85;;;13.13;;
37937;SDS011;23763;48.130;11.602;2024-03-08T12:27:37;16.50;;;13.13;;
37937;SDS011;23763;48.130;11.602;2024-03-08T12:30:17;17.05;;;13.15;;
37937;SDS011;23763;48.130;11.602;2024-03-08T12:32:48;18.85;;;13.02;;
37937;SDS011;23763;48.130;11.602;2024-03-08T12:35:14;15.98;;;13.45;;
37937;SDS011;23763;48.130;11.602;2024-03-08T12:37:41;18.50;;;13.70;;
37937;SDS011;23763;48.130;11.602;2024-03-08T12:40:08;15.23;;;13.20;;
37937;SDS011;23763;48.130;11.602;2024-03-08T12:42:35;18.10;;;13.63;;
37937;SDS011;23763;48.130;11.602;2024-03-08T12:45:02;18.63;;;13.93;;
37937;SDS011;23763;48.130;11.602;2024-03-08T12:47:29;19.17;;;14.05;;
37937;SDS011;23763;48.130;11.602;2024-03-08T12:49:58;15.63;;;13.35;;
37937;SDS011;23763;48.130;11.602;2024-03-08T12:52:24;18.73;;;14.65;;
37937;SDS011;23763;48.130;11.602;2024-03-08T12:54:50;17.95;;;13.38;;
37937;SDS011;23763;48.130;11.602;2024-03-08T12:57:16;19.63;;;14.57;;
37937;SDS011;23763;48.130;11.602;2024-03-08T12:59:43;20.27;;;14.93;;
37937;SDS011;23763;48.130;11.602;2024-03-08T13:02:09;20.65;;;15.02;;
37937;SDS011;23763;48.130;11.602;2024-03-08T13:04:36;25.60;;;16.42;;
37937;SDS011;23763;48.130;11.602;2024-03-08T13:07:02;19.40;;;16.05;;
37937;SDS011;23763;48.130;11.602;2024-03-08T13:09:28;18.35;;;14.57;;
37937;SDS011;23763;48.130;11.602;2024-03-08T13:11:55;20.70;;;15.27;;
37937;SDS011;23763;48.130;11.602;2024-03-08T13:14:23;17.88;;;14.07;;
37937;SDS011;23763;48.130;11.602;2024-03-08T13:16:49;18.42;;;14.95;;
37937;SDS011;23763;48.130;11.602;2024-03-08T13:19:16;17.90;;;14.23;;
37937;SDS011;23763;48.130;11.602;2024-03-08T13:21:42;16.63;;;13.95;;
37937;SDS011;23763;48.130;11.602;2024-03-08T13:24:15;18.40;;;14.13;;
37937;SDS011;23763;48.130;11.602;2024-03-08T13:26:41;18.65;;;14.23;;
37937;SDS011;23763;48.130;11.602;2024-03-08T13:29:08;18.08;;;13.57;;
37937;SDS011;23763;48.130;11.602;2024-03-08T13:31:34;17.10;;;13.65;;
37937;SDS011;23763;48.130;11.602;2024-03-08T13:34:01;17.48;;;13.82;;
37937;SDS011;23763;48.130;11.602;2024-03-08T13:36:30;18.45;;;14.90;;
37937;SDS011;23763;48.130;11.602;2024-03-08T13:39:04;21.05;;;14.93;;
37937;SDS011;23763;48.130;11.602;2024-03-08T13:41:40;18.95;;;14.38;;
37937;SDS011;23763;48.130;11.602;2024-03-08T13:44:06;19.27;;;14.85;;
37937;SDS011;23763;48.130;11.602;2024-03-08T13:46:33;16.92;;;13.82;;
37937;SDS011;23763;48.130;11.602;2024-03-08T13:49:04;18.38;;;14.43;;
37937;SDS011;23763;48.130;11.602;2024-03-08T13:51:35;19.30;;;14.73;;
37937;SDS011;23763;48.130;11.602;2024-03-08T13:54:01;17.13;;;14.60;;
37937;SDS011;23763;48.130;11.602;2024-03-08T13:56:27;16.08;;;14.27;;
37937;SDS011;23763;48.130;11.602;2024-03-08T13:58:56;19.83;;;14.60;;
37937;SDS011;23763;48.130;11.602;2024-03-08T14:01:22;17.75;;;13.88;;
37937;SDS011;23763;48.130;11.602;2024-03-08T14:03:49;18.83;;;15.23;;
37937;SDS011;23763;48.130;11.602;2024-03-08T14:06:15;18.77;;;14.52;;
37937;SDS011;23763;48.130;11.602;2024-03-08T14:08:41;18.13;;;15.13;;
37937;SDS011;23763;48.130;11.602;2024-03-08T14:11:07;16.65;;;14.43;;
37937;SDS011;23763;48.130;11.602;2024-03-08T14:13:41;18.33;;;14.77;;
37937;SDS011;23763;48.130;11.602;2024-03-08T14:16:10;17.70;;;15.15;;